createdAt,value
2019-04-21T00:00:31.931Z,30.32
2019-04-21T00:03:11.699Z,31.07
2019-04-21T00:05:58.863Z,28.10
2019-04-21T00:11:09.426Z,29.75
2019-04-21T00:13:32.882Z,32.58
2019-04-21T00:15:59.232Z,31.27
2019-04-21T00:18:50.673Z,30.57
2019-04-21T00:21:26.491Z,30.65
2019-04-21T00:24:05.850Z,30.95
2019-04-21T00:26:45.883Z,30.65
2019-04-21T00:29:19.262Z,33.28
2019-04-21T00:31:45.575Z,30.25
2019-04-21T00:34:07.319Z,28.80
2019-04-21T00:36:51.528Z,28.75
2019-04-21T00:39:43.909Z,29.20
2019-04-21T00:42:05.169Z,30.10
2019-04-21T00:44:35.868Z,28.15
2019-04-21T00:47:23.821Z,29.82
2019-04-21T00:49:55.390Z,28.67
2019-04-21T00:52:46.121Z,30.97
2019-04-21T00:55:18.774Z,27.85
2019-04-21T00:57:38.747Z,28.17
2019-04-21T01:00:11.879Z,29.45
2019-04-21T01:02:51.115Z,30.90
2019-04-21T01:05:21.358Z,29.72
2019-04-21T01:07:50.388Z,32.73
2019-04-21T01:10:20.997Z,32.50
2019-04-21T01:13:02.723Z,29.92
2019-04-21T01:15:43.956Z,29.57
2019-04-21T01:18:09.098Z,31.17
2019-04-21T01:20:23.869Z,31.05
2019-04-21T01:22:56.235Z,29.92
2019-04-21T01:25:36.807Z,28.87
2019-04-21T01:28:19.927Z,29.23
2019-04-21T01:30:59.457Z,32.90
2019-04-21T01:33:34.979Z,32.33
2019-04-21T01:36:06.672Z,32.70
2019-04-21T01:38:40.133Z,33.38
2019-04-21T01:41:21.853Z,28.30
2019-04-21T01:43:45.800Z,31.15
2019-04-21T01:46:15.114Z,31.50
2019-04-21T01:48:49.293Z,30.02
2019-04-21T01:51:23.638Z,31.37
2019-04-21T01:54:08.855Z,30.45
2019-04-21T01:56:42.794Z,32.50
2019-04-21T01:59:03.474Z,32.75
2019-04-21T02:01:49.293Z,31.77
2019-04-21T02:04:34.690Z,30.65
2019-04-21T02:06:57.277Z,30.90
2019-04-21T02:09:38.249Z,31.00
2019-04-21T02:12:17.169Z,31.33
2019-04-21T02:14:51.536Z,31.10
2019-04-21T02:17:23.851Z,29.20
2019-04-21T02:19:50.334Z,30.15
2019-04-21T02:22:35.222Z,41.75
2019-04-21T02:25:10.866Z,32.45
2019-04-21T02:27:40.892Z,31.23
2019-04-21T02:30:24.761Z,30.80
2019-04-21T02:33:04.035Z,97.95
2019-04-21T02:45:46.716Z,33.20
2019-04-21T02:50:55.032Z,33.42
2019-04-21T02:53:39.106Z,33.08
2019-04-21T02:56:11.548Z,33.20
2019-04-21T03:09:33.452Z,32.70
2019-04-21T03:12:05.414Z,33.63
2019-04-21T03:14:47.921Z,33.53
2019-04-21T03:17:14.661Z,34.25
2019-04-21T03:22:24.926Z,35.75
2019-04-21T03:25:04.529Z,36.28
2019-04-21T03:30:14.259Z,36.20
2019-04-21T03:33:24.009Z,33.30
2019-04-21T03:35:53.399Z,35.52
2019-04-21T03:37:49.711Z,36.17
2019-04-21T03:40:21.726Z,35.95
2019-04-21T03:42:59.788Z,33.60
2019-04-21T03:45:39.130Z,37.55
2019-04-21T03:48:09.384Z,35.58
2019-04-21T03:50:33.139Z,36.98
2019-04-21T03:53:09.299Z,33.67
2019-04-21T03:55:53.066Z,28.98
2019-04-21T04:01:08.207Z,37.80
2019-04-21T04:04:06.322Z,36.80
2019-04-21T04:06:39.052Z,34.13
2019-04-21T04:09:26.480Z,37.40
2019-04-21T04:11:50.877Z,33.38
2019-04-21T04:14:33.322Z,38.05
2019-04-21T04:17:14.604Z,37.90
2019-04-21T04:22:14.591Z,37.55
2019-04-21T04:24:54.745Z,37.42
2019-04-21T04:29:59.207Z,40.48
2019-04-21T04:32:29.209Z,36.65
2019-04-21T04:37:46.959Z,39.53
2019-04-21T04:40:13.402Z,36.88
2019-04-21T04:43:09.744Z,38.50
2019-04-21T04:45:30.685Z,39.60
2019-04-21T04:47:59.066Z,37.95
2019-04-21T04:53:07.687Z,36.90
2019-04-21T04:55:39.533Z,38.50
2019-04-21T04:58:35.594Z,37.48
2019-04-21T05:00:48.047Z,35.75
2019-04-21T05:03:24.221Z,36.33
2019-04-21T05:06:31.714Z,36.85
2019-04-21T05:09:03.920Z,38.60
2019-04-21T05:19:21.931Z,38.63
2019-04-21T05:21:42.203Z,37.50
2019-04-21T05:24:08.076Z,35.00
2019-04-21T05:26:46.248Z,29.42
2019-04-21T05:29:13.494Z,33.58
2019-04-21T05:32:12.840Z,36.15
2019-04-21T05:34:30.549Z,36.68
2019-04-21T05:37:12.742Z,36.35
2019-04-21T05:39:41.957Z,36.90
2019-04-21T05:42:30.556Z,35.40
2019-04-21T05:45:23.032Z,37.25
2019-04-21T05:48:05.952Z,37.33
2019-04-21T05:50:30.440Z,36.65
2019-04-21T05:52:58.539Z,36.00
2019-04-21T05:55:46.406Z,36.33
2019-04-21T05:58:14.488Z,35.03
2019-04-21T06:03:47.688Z,36.25
2019-04-21T06:08:42.297Z,39.40
2019-04-21T06:14:02.614Z,35.85
2019-04-21T06:16:37.475Z,39.03
2019-04-21T06:19:22.316Z,38.10
2019-04-21T06:21:33.284Z,37.88
2019-04-21T06:24:18.235Z,39.03
2019-04-21T06:29:30.038Z,33.70
2019-04-21T06:32:30.524Z,35.08
2019-04-21T06:35:01.107Z,35.60
2019-04-21T06:37:39.617Z,35.75
2019-04-21T06:40:21.038Z,33.23
2019-04-21T06:42:40.189Z,33.70
2019-04-21T06:45:20.080Z,33.70
2019-04-21T06:48:01.120Z,34.33
2019-04-21T06:50:30.196Z,33.73
2019-04-21T06:53:10.800Z,34.58
2019-04-21T06:55:41.906Z,35.03
2019-04-21T06:58:10.104Z,35.13
2019-04-21T07:00:40.973Z,33.40
2019-04-21T07:06:03.227Z,34.75
2019-04-21T07:08:34.729Z,35.50
2019-04-21T07:11:05.390Z,34.40
2019-04-21T07:13:32.190Z,34.35
2019-04-21T07:16:12.047Z,33.50
2019-04-21T07:18:55.577Z,35.33
2019-04-21T07:21:23.552Z,33.92
2019-04-21T07:23:53.758Z,34.33
2019-04-21T07:26:28.294Z,35.05
2019-04-21T07:31:40.198Z,35.50
2019-04-21T07:36:50.867Z,36.48
2019-04-21T07:39:12.050Z,35.30
2019-04-21T07:41:47.021Z,35.52
2019-04-21T07:44:15.091Z,34.45
2019-04-21T07:46:44.088Z,34.50
2019-04-21T07:49:44.257Z,33.23
2019-04-21T07:52:22.175Z,33.05
2019-04-21T07:55:12.627Z,33.75
2019-04-21T07:57:35.216Z,34.08
2019-04-21T08:02:40.312Z,34.23
2019-04-21T08:07:51.900Z,32.40
2019-04-21T08:10:22.468Z,33.28
2019-04-21T08:12:55.706Z,30.40
2019-04-21T08:15:33.938Z,33.88
2019-04-21T08:18:00.699Z,34.03
2019-04-21T08:20:36.323Z,34.10
2019-04-21T08:23:14.161Z,32.90
2019-04-21T08:25:53.057Z,33.13
2019-04-21T08:28:20.799Z,34.45
2019-04-21T08:30:55.444Z,32.42
2019-04-21T08:33:34.519Z,32.55
2019-04-21T08:38:36.237Z,31.10
2019-04-21T08:41:08.594Z,32.85
2019-04-21T08:43:42.573Z,32.70
2019-04-21T08:46:20.259Z,33.38
2019-04-21T08:48:52.802Z,34.18
2019-04-21T08:51:43.087Z,33.73
2019-04-21T08:54:02.360Z,33.08
2019-04-21T08:56:41.331Z,31.23
2019-04-21T08:59:18.988Z,32.33
2019-04-21T09:02:02.639Z,30.80
2019-04-21T09:04:47.307Z,34.48
2019-04-21T09:07:28.752Z,32.13
2019-04-21T09:09:41.613Z,32.55
2019-04-21T09:12:16.117Z,34.90
2019-04-21T09:14:51.261Z,33.83
2019-04-21T09:17:16.387Z,32.60
2019-04-21T09:19:57.880Z,32.63
2019-04-21T09:22:30.454Z,32.85
2019-04-21T09:25:04.658Z,30.75
2019-04-21T09:27:35.628Z,42.17
2019-04-21T09:29:55.971Z,71.12
2019-04-21T09:32:29.412Z,129.55
2019-04-21T09:35:03.439Z,101.07
2019-04-21T09:37:44.346Z,37.78
2019-04-21T09:40:11.748Z,35.05
2019-04-21T09:42:53.176Z,34.05
2019-04-21T09:45:17.693Z,33.08
2019-04-21T09:47:59.000Z,34.43
2019-04-21T09:50:24.270Z,35.58
2019-04-21T09:53:03.950Z,42.75
2019-04-21T09:55:41.746Z,32.25
2019-04-21T09:58:13.440Z,32.60
2019-04-21T10:00:47.535Z,32.80
2019-04-21T10:03:15.691Z,38.35
2019-04-21T10:05:47.483Z,41.48
2019-04-21T10:08:19.908Z,41.77
2019-04-21T10:10:52.678Z,40.10
2019-04-21T10:13:25.389Z,40.88
2019-04-21T10:18:33.903Z,35.80
2019-04-21T10:21:07.618Z,34.67
2019-04-21T10:23:41.508Z,35.75
2019-04-21T10:26:14.598Z,37.08
2019-04-21T10:28:47.009Z,34.88
2019-04-21T10:31:20.788Z,36.23
2019-04-21T10:33:54.534Z,34.45
2019-04-21T10:36:27.747Z,33.25
2019-04-21T10:39:02.319Z,33.60
2019-04-21T10:41:37.336Z,35.90
2019-04-21T10:44:11.446Z,35.50
2019-04-21T10:46:47.369Z,41.70
2019-04-21T10:49:18.975Z,37.50
2019-04-21T10:51:53.115Z,34.88
2019-04-21T10:56:56.865Z,36.77
2019-04-21T11:02:03.282Z,34.98
2019-04-21T11:04:38.254Z,36.85
2019-04-21T11:07:20.001Z,36.13
2019-04-21T11:09:52.341Z,31.17
2019-04-21T11:12:25.954Z,35.28
2019-04-21T11:14:59.615Z,35.25
2019-04-21T11:17:32.338Z,38.90
2019-04-21T11:20:06.600Z,41.73
2019-04-21T11:22:40.111Z,38.38
2019-04-21T11:25:12.885Z,39.67
2019-04-21T11:27:47.058Z,45.15
2019-04-21T11:30:20.040Z,34.40
2019-04-21T11:32:53.105Z,40.98
2019-04-21T11:35:27.618Z,41.63
2019-04-21T11:38:08.372Z,37.17
2019-04-21T11:40:36.079Z,27.67
2019-04-21T11:43:09.563Z,41.53
2019-04-21T11:45:44.666Z,31.48
2019-04-21T11:48:24.072Z,37.28
2019-04-21T11:50:57.289Z,35.68
2019-04-21T11:53:30.773Z,37.67
2019-04-21T11:56:03.105Z,34.25
2019-04-21T11:58:37.027Z,39.73
2019-04-21T12:01:09.746Z,38.78
2019-04-21T12:03:42.697Z,37.50
2019-04-21T12:06:15.489Z,38.10
2019-04-21T12:08:51.521Z,26.23
2019-04-21T12:11:23.329Z,36.73
2019-04-21T12:14:00.363Z,35.48
2019-04-21T12:16:33.127Z,40.33
2019-04-21T12:21:49.158Z,31.73
2019-04-21T12:24:13.156Z,35.30
2019-04-21T12:26:46.350Z,36.20
2019-04-21T12:29:19.030Z,35.78
2019-04-21T12:32:03.489Z,38.85
2019-04-21T12:34:37.237Z,35.80
2019-04-21T12:37:10.958Z,36.83
2019-04-21T12:39:44.976Z,36.40
2019-04-21T12:42:18.570Z,36.70
2019-04-21T12:44:51.916Z,36.63
2019-04-21T12:47:25.889Z,34.88
2019-04-21T12:50:02.780Z,37.42
2019-04-21T12:52:35.718Z,33.78
2019-04-21T12:55:09.748Z,37.30
2019-04-21T12:57:43.444Z,38.08
2019-04-21T13:00:18.786Z,37.50
2019-04-21T13:02:52.140Z,38.10
2019-04-21T13:05:27.445Z,40.43
2019-04-21T13:07:59.842Z,34.60
2019-04-21T13:10:33.983Z,37.53
2019-04-21T13:13:10.081Z,37.53
2019-04-21T13:15:45.715Z,37.55
2019-04-21T13:18:20.477Z,37.28
2019-04-21T13:24:03.487Z,37.80
2019-04-21T13:26:50.442Z,38.92
2019-04-21T13:32:49.266Z,39.27
2019-04-21T13:35:23.414Z,41.18
2019-04-21T13:38:00.454Z,39.55
2019-04-21T13:40:53.408Z,40.25
2019-04-21T13:46:54.623Z,38.85
2019-04-21T13:50:25.559Z,43.38
2019-04-21T13:57:34.694Z,37.67
2019-04-21T14:00:33.813Z,29.77
2019-04-21T14:03:44.026Z,11.43
2019-04-21T14:10:23.893Z,19.45
2019-04-21T14:13:00.468Z,19.92
2019-04-21T14:15:33.080Z,20.62
2019-04-21T14:18:07.287Z,21.62
2019-04-21T14:20:43.008Z,20.45
2019-04-21T14:23:25.536Z,20.08
2019-04-21T14:25:59.800Z,20.15
2019-04-21T14:32:29.521Z,18.67
2019-04-21T14:35:03.077Z,20.92
2019-04-21T14:37:38.272Z,21.82
2019-04-21T14:40:16.212Z,22.65
2019-04-21T14:42:45.480Z,29.20
2019-04-21T14:45:32.881Z,24.52
2019-04-21T14:48:25.197Z,23.00
2019-04-21T14:51:09.181Z,24.98
2019-04-21T14:53:59.687Z,23.40
2019-04-21T14:56:33.456Z,27.13
2019-04-21T14:59:07.224Z,23.55
2019-04-21T15:01:40.050Z,23.80
2019-04-21T15:04:14.435Z,26.60
2019-04-21T15:06:47.550Z,27.75
2019-04-21T15:09:21.004Z,28.05
2019-04-21T15:11:53.920Z,26.42
2019-04-21T15:14:26.421Z,27.22
2019-04-21T15:16:58.813Z,26.30
2019-04-21T15:19:31.233Z,28.42
2019-04-21T15:22:03.986Z,24.72
2019-04-21T15:24:36.625Z,28.17
2019-04-21T15:27:12.909Z,27.13
2019-04-21T15:29:45.240Z,26.95
2019-04-21T15:32:18.799Z,25.85
2019-04-21T15:34:52.029Z,24.85
2019-04-21T15:37:26.034Z,19.40
2019-04-21T15:40:10.613Z,24.80
2019-04-21T15:42:34.652Z,29.85
2019-04-21T15:45:08.429Z,32.10
2019-04-21T15:47:42.128Z,28.65
2019-04-21T15:50:17.833Z,29.63
2019-04-21T15:52:49.764Z,30.32
2019-04-21T15:55:41.679Z,30.05
2019-04-21T15:58:16.479Z,30.35
2019-04-21T16:00:54.275Z,32.85
2019-04-21T16:03:28.928Z,31.57
2019-04-21T16:06:01.416Z,32.70
2019-04-21T16:08:35.165Z,32.70
2019-04-21T16:11:11.453Z,32.53
2019-04-21T16:13:45.706Z,34.75
2019-04-21T16:16:20.220Z,32.35
2019-04-21T16:18:52.287Z,32.45
2019-04-21T16:24:00.445Z,34.88
2019-04-21T16:26:35.507Z,33.73
2019-04-21T16:29:09.370Z,26.50
2019-04-21T16:31:42.844Z,26.93
2019-04-21T16:34:15.780Z,29.52
2019-04-21T16:36:49.664Z,26.15
2019-04-21T16:39:23.156Z,25.15
2019-04-21T16:41:56.330Z,23.18
2019-04-21T16:44:29.407Z,22.93
2019-04-21T16:47:03.326Z,21.27
2019-04-21T16:49:35.833Z,21.33
2019-04-21T16:52:12.551Z,21.68
2019-04-21T16:55:05.956Z,21.62
2019-04-21T16:57:41.801Z,20.08
2019-04-21T17:00:32.764Z,20.75
2019-04-21T17:03:00.758Z,19.77
2019-04-21T17:11:59.909Z,20.80
2019-04-21T17:14:45.241Z,19.55
2019-04-21T17:17:27.242Z,18.45
2019-04-21T17:19:45.557Z,14.63
2019-04-21T17:22:15.539Z,20.50
2019-04-21T17:24:48.484Z,4.47
2019-04-21T17:27:27.433Z,8.55
2019-04-21T17:30:01.221Z,12.23
2019-04-21T17:32:38.750Z,5.70
2019-04-21T17:35:08.461Z,5.20
2019-04-21T17:37:42.342Z,14.78
2019-04-21T17:40:16.017Z,10.43
2019-04-21T17:42:53.682Z,11.25
2019-04-21T17:45:23.461Z,6.67
2019-04-21T17:48:04.609Z,9.85
2019-04-21T17:50:31.751Z,5.72
2019-04-21T17:53:26.574Z,10.03
2019-04-21T17:56:05.077Z,11.18
2019-04-21T17:58:43.313Z,15.00
2019-04-21T18:01:20.913Z,8.48
2019-04-21T18:03:58.755Z,8.18
2019-04-21T18:06:26.140Z,6.87
2019-04-21T18:09:08.901Z,10.93
2019-04-21T18:11:39.566Z,9.23
2019-04-21T18:13:51.753Z,10.88
2019-04-21T18:18:59.144Z,15.40
2019-04-21T18:24:15.519Z,13.68
2019-04-21T18:26:51.928Z,11.30
2019-04-21T18:29:18.876Z,11.57
2019-04-21T18:31:53.837Z,7.15
2019-04-21T18:34:28.775Z,6.35
2019-04-21T18:37:05.464Z,13.22
2019-04-21T18:39:50.040Z,6.90
2019-04-21T18:42:31.179Z,15.75
2019-04-21T18:45:34.400Z,10.18
2019-04-21T18:48:01.627Z,7.78
2019-04-21T18:50:24.165Z,14.53
2019-04-21T18:53:08.978Z,14.20
2019-04-21T18:55:39.193Z,14.60
2019-04-21T18:58:05.553Z,12.15
2019-04-21T19:00:40.517Z,12.10
2019-04-21T19:03:15.459Z,7.10
2019-04-21T19:05:53.809Z,8.45
2019-04-21T19:08:44.313Z,10.82
2019-04-21T19:11:14.895Z,7.92
2019-04-21T19:19:35.368Z,13.10
2019-04-21T19:21:46.988Z,16.37
2019-04-21T19:24:22.873Z,12.03
2019-04-21T19:29:29.827Z,8.75
2019-04-21T19:32:05.768Z,7.60
2019-04-21T19:34:23.703Z,7.72
2019-04-21T19:36:57.651Z,6.10
2019-04-21T19:39:39.155Z,9.23
2019-04-21T19:42:08.817Z,13.98
2019-04-21T19:44:47.050Z,7.92
2019-04-21T19:47:28.166Z,9.50
2019-04-21T19:50:01.929Z,7.15
2019-04-21T19:52:26.942Z,8.80
2019-04-21T19:54:50.777Z,10.50
2019-04-21T19:57:24.984Z,13.80
2019-04-21T20:00:00.341Z,16.80
2019-04-21T20:02:32.161Z,11.05
2019-04-21T20:05:10.702Z,14.03
2019-04-21T20:07:54.802Z,16.12
2019-04-21T20:10:32.759Z,12.00
2019-04-21T20:13:08.679Z,8.35
2019-04-21T20:15:41.522Z,6.92
2019-04-21T20:18:08.967Z,10.70
2019-04-21T20:20:28.901Z,16.82
2019-04-21T20:23:01.440Z,11.50
2019-04-21T20:25:39.358Z,18.48
2019-04-21T20:28:16.082Z,14.78
2019-04-21T20:31:03.873Z,19.67
2019-04-21T20:36:12.328Z,32.63
2019-04-21T20:38:35.875Z,56.25
2019-04-21T20:41:15.326Z,78.57
2019-04-21T20:44:09.873Z,59.42
2019-04-21T20:46:24.678Z,41.05
2019-04-21T20:48:51.265Z,29.00
2019-04-21T20:51:36.225Z,28.65
2019-04-21T20:54:01.842Z,23.50
2019-04-21T20:56:40.946Z,30.15
2019-04-21T20:59:13.859Z,59.77
2019-04-21T21:01:43.317Z,75.83
2019-04-21T21:04:15.003Z,35.95
2019-04-21T21:06:56.107Z,29.00
2019-04-21T21:09:25.591Z,26.15
2019-04-21T21:12:19.043Z,23.62
2019-04-21T21:14:36.326Z,22.95
2019-04-21T21:17:13.252Z,22.80
2019-04-21T21:19:45.676Z,26.45
2019-04-21T21:22:10.921Z,24.43
2019-04-21T21:24:50.538Z,23.60
2019-04-21T21:27:25.204Z,23.47
2019-04-21T21:29:56.468Z,25.08
2019-04-21T21:32:31.660Z,25.23
2019-04-21T21:35:09.524Z,24.20
2019-04-21T21:37:41.047Z,23.45
2019-04-21T21:40:18.174Z,26.00
2019-04-21T21:42:35.402Z,26.02
2019-04-21T21:45:12.565Z,25.12
2019-04-21T21:47:53.634Z,28.12
2019-04-21T21:50:25.125Z,33.85
2019-04-21T21:53:00.755Z,31.70
2019-04-21T21:55:25.606Z,30.08
2019-04-21T21:58:02.437Z,27.07
2019-04-21T22:00:37.008Z,29.45
2019-04-21T22:03:17.677Z,25.65
2019-04-21T22:05:48.578Z,25.68
2019-04-21T22:08:16.347Z,27.30
2019-04-21T22:10:49.412Z,26.75
2019-04-21T22:13:31.803Z,26.30
2019-04-21T22:16:02.897Z,27.02
2019-04-21T22:18:45.488Z,25.88
2019-04-21T22:21:15.663Z,28.65
2019-04-21T22:23:49.041Z,29.10
2019-04-21T22:26:11.550Z,25.92
2019-04-21T22:28:45.409Z,26.62
2019-04-21T22:31:22.919Z,26.05
2019-04-21T22:33:55.377Z,25.90
2019-04-21T22:36:35.250Z,27.58
2019-04-21T22:39:13.111Z,26.52
2019-04-21T22:41:41.073Z,28.12
2019-04-21T22:44:10.075Z,31.15
2019-04-21T22:46:56.110Z,31.15
2019-04-21T22:49:18.290Z,26.77
2019-04-21T22:51:51.937Z,27.07
2019-04-21T22:54:31.770Z,27.77
2019-04-21T22:57:06.487Z,28.50
2019-04-21T22:59:33.726Z,26.05
2019-04-21T23:02:13.752Z,25.88
2019-04-21T23:04:46.186Z,28.50
2019-04-21T23:07:17.690Z,30.80
2019-04-21T23:09:51.439Z,33.25
2019-04-21T23:12:28.190Z,34.98
2019-04-21T23:15:06.277Z,21.82
2019-04-21T23:17:55.944Z,29.27
2019-04-21T23:20:32.841Z,28.38
2019-04-21T23:23:06.728Z,29.25
2019-04-21T23:25:36.649Z,32.05
2019-04-21T23:28:05.133Z,30.25
2019-04-21T23:30:49.747Z,28.75
2019-04-21T23:33:06.589Z,32.98
2019-04-21T23:35:38.769Z,30.65
2019-04-21T23:38:10.504Z,25.17
2019-04-21T23:40:48.824Z,31.73
2019-04-21T23:43:19.234Z,31.15
2019-04-21T23:45:50.580Z,33.00
2019-04-21T23:48:36.453Z,33.75
2019-04-21T23:51:14.304Z,32.13
2019-04-21T23:53:33.287Z,36.08
2019-04-21T23:56:07.379Z,36.15
2019-04-21T23:58:40.302Z,36.93
